createdAt,value
2023-04-16T00:02:12.780Z,10.26
2023-04-16T00:04:39.539Z,10.22
2023-04-16T00:07:06.115Z,10.17
2023-04-16T00:09:35.170Z,10.12
2023-04-16T00:12:04.473Z,10.01
2023-04-16T00:14:33.404Z,9.93
2023-04-16T00:17:02.853Z,9.92
2023-04-16T00:19:31.958Z,9.90
2023-04-16T00:22:01.119Z,9.82
2023-04-16T00:24:30.529Z,9.77
2023-04-16T00:27:02.133Z,9.83
2023-04-16T00:29:32.448Z,9.89
2023-04-16T00:31:59.131Z,9.85
2023-04-16T00:34:25.788Z,9.85
2023-04-16T00:36:52.410Z,9.78
2023-04-16T00:39:19.142Z,9.62
2023-04-16T00:41:46.369Z,9.52
2023-04-16T00:44:12.996Z,9.52
2023-04-16T00:46:42.227Z,9.46
2023-04-16T00:49:11.718Z,9.44
2023-04-16T00:51:40.980Z,9.42
2023-04-16T00:54:07.589Z,9.38
2023-04-16T00:56:34.799Z,9.37
2023-04-16T00:59:01.521Z,9.37
2023-04-16T01:01:30.489Z,9.41
2023-04-16T01:03:57.406Z,9.38
2023-04-16T01:06:24.251Z,9.34
2023-04-16T01:08:50.910Z,9.36
2023-04-16T01:11:17.682Z,9.32
2023-04-16T01:13:46.662Z,9.25
2023-04-16T01:16:13.468Z,9.24
2023-04-16T01:18:40.175Z,9.16
2023-04-16T01:21:07.033Z,9.13
2023-04-16T01:23:36.085Z,9.19
2023-04-16T01:26:05.755Z,9.23
2023-04-16T01:28:35.199Z,9.27
2023-04-16T01:31:01.844Z,9.28
2023-04-16T01:33:50.681Z,9.30
2023-04-16T01:36:17.279Z,9.26
2023-04-16T01:38:45.260Z,9.22
2023-04-16T01:41:11.825Z,9.21
2023-04-16T01:43:40.203Z,9.22
2023-04-16T01:46:10.245Z,9.26
2023-04-16T01:48:42.118Z,9.21
2023-04-16T01:51:10.102Z,9.17
2023-04-16T01:53:38.871Z,9.13
2023-04-16T01:56:08.478Z,9.16
2023-04-16T01:58:35.559Z,9.11
2023-04-16T02:01:02.428Z,9.07
2023-04-16T02:03:31.812Z,9.08
2023-04-16T02:06:01.838Z,9.08
2023-04-16T02:08:28.898Z,9.03
2023-04-16T02:10:56.031Z,9.02
2023-04-16T02:13:25.632Z,8.97
2023-04-16T02:15:52.812Z,8.98
2023-04-16T02:18:42.316Z,9.00
2023-04-16T02:21:09.622Z,9.04
2023-04-16T02:23:41.131Z,9.06
2023-04-16T02:26:07.961Z,9.06
2023-04-16T02:28:34.546Z,9.06
2023-04-16T02:31:01.732Z,9.05
2023-04-16T02:33:33.221Z,9.04
2023-04-16T02:36:05.839Z,9.03
2023-04-16T02:38:32.587Z,9.01
2023-04-16T02:40:59.414Z,9.05
2023-04-16T02:43:28.605Z,8.99
2023-04-16T02:45:56.238Z,8.90
2023-04-16T02:48:25.375Z,8.91
2023-04-16T02:50:52.049Z,8.88
2023-04-16T02:53:21.470Z,8.84
2023-04-16T02:55:55.019Z,8.85
2023-04-16T02:58:21.981Z,8.87
2023-04-16T03:00:48.980Z,8.81
2023-04-16T03:03:16.201Z,8.77
2023-04-16T03:05:42.933Z,8.76
2023-04-16T03:08:12.323Z,8.71
2023-04-16T03:10:41.921Z,8.68
2023-04-16T03:13:08.607Z,8.67
2023-04-16T03:15:35.240Z,8.61
2023-04-16T03:18:02.330Z,8.60
2023-04-16T03:20:29.016Z,8.58
2023-04-16T03:22:55.601Z,8.57
2023-04-16T03:25:22.236Z,8.57
2023-04-16T03:27:51.655Z,8.55
2023-04-16T03:30:18.843Z,8.50
2023-04-16T03:32:48.182Z,8.46
2023-04-16T03:35:15.913Z,8.47
2023-04-16T03:37:42.791Z,8.47
2023-04-16T03:40:09.987Z,8.48
2023-04-16T03:42:37.467Z,8.47
2023-04-16T03:45:05.232Z,8.45
2023-04-16T03:47:32.116Z,8.35
2023-04-16T03:50:02.018Z,8.35
2023-04-16T03:52:28.697Z,8.40
2023-04-16T03:54:58.176Z,8.42
2023-04-16T03:57:27.512Z,8.46
2023-04-16T03:59:58.209Z,8.49
2023-04-16T04:02:27.805Z,8.53
2023-04-16T04:04:56.970Z,8.61
2023-04-16T04:07:23.710Z,8.63
2023-04-16T04:09:51.921Z,8.70
2023-04-16T04:12:18.660Z,8.78
2023-04-16T04:14:46.351Z,8.82
2023-04-16T04:17:12.978Z,8.90
2023-04-16T04:19:50.645Z,8.93
2023-04-16T04:22:20.791Z,8.99
2023-04-16T04:24:47.475Z,8.98
2023-04-16T04:27:16.452Z,8.94
2023-04-16T04:29:45.518Z,8.92
2023-04-16T04:32:14.641Z,8.92
2023-04-16T04:34:43.759Z,8.96
2023-04-16T04:37:10.960Z,9.02
2023-04-16T04:39:39.888Z,9.11
2023-04-16T04:42:06.672Z,9.17
2023-04-16T04:44:33.241Z,9.25
2023-04-16T04:46:59.892Z,9.31
2023-04-16T04:49:31.028Z,9.31
2023-04-16T04:51:57.674Z,9.24
2023-04-16T04:54:24.607Z,9.26
2023-04-16T04:56:53.556Z,9.23
2023-04-16T04:59:20.680Z,9.23
2023-04-16T05:01:47.498Z,9.27
2023-04-16T05:04:14.259Z,9.10
2023-04-16T05:06:43.160Z,9.13
2023-04-16T05:09:11.949Z,9.15
2023-04-16T05:11:41.671Z,9.22
2023-04-16T05:14:08.820Z,9.25
2023-04-16T05:16:40.856Z,9.32
2023-04-16T05:19:08.339Z,9.41
2023-04-16T05:21:35.453Z,9.42
2023-04-16T05:24:02.099Z,9.51
2023-04-16T05:26:31.164Z,9.56
2023-04-16T05:28:57.758Z,9.62
2023-04-16T05:31:24.401Z,9.70
2023-04-16T05:33:51.080Z,9.72
2023-04-16T05:36:17.775Z,9.77
2023-04-16T05:38:44.333Z,9.84
2023-04-16T05:41:10.905Z,9.86
2023-04-16T05:43:37.620Z,9.98
2023-04-16T05:46:09.590Z,10.10
2023-04-16T05:48:36.355Z,10.06
2023-04-16T05:51:03.397Z,10.20
2023-04-16T05:53:30.125Z,10.30
2023-04-16T05:55:56.904Z,10.39
2023-04-16T05:58:23.550Z,10.44
2023-04-16T06:00:52.780Z,10.53
2023-04-16T06:03:22.427Z,10.56
2023-04-16T06:05:49.505Z,10.57
2023-04-16T06:08:21.235Z,10.62
2023-04-16T06:10:50.606Z,10.70
2023-04-16T06:13:17.208Z,10.86
2023-04-16T06:15:44.272Z,10.95
2023-04-16T06:18:10.977Z,11.02
2023-04-16T06:20:40.390Z,10.97
2023-04-16T06:23:09.553Z,11.07
2023-04-16T06:25:36.251Z,11.16
2023-04-16T06:28:03.167Z,11.29
2023-04-16T06:30:29.897Z,11.29
2023-04-16T06:32:58.916Z,11.39
2023-04-16T06:35:25.655Z,11.58
2023-04-16T06:37:58.962Z,11.78
2023-04-16T06:40:25.686Z,11.94
2023-04-16T06:42:52.306Z,11.91
2023-04-16T06:45:21.352Z,12.08
2023-04-16T06:47:48.275Z,12.21
2023-04-16T06:50:15.006Z,12.19
2023-04-16T06:52:41.591Z,12.32
2023-04-16T06:55:10.684Z,12.47
2023-04-16T06:57:41.067Z,12.58
2023-04-16T07:00:08.228Z,12.70
2023-04-16T07:02:35.078Z,12.77
2023-04-16T07:05:01.990Z,12.86
2023-04-16T07:07:28.700Z,12.70
2023-04-16T07:09:58.097Z,12.72
2023-04-16T07:12:24.781Z,12.67
2023-04-16T07:14:51.627Z,12.53
2023-04-16T07:17:18.620Z,12.65
2023-04-16T07:19:45.416Z,12.68
2023-04-16T07:22:14.362Z,12.54
2023-04-16T07:24:41.178Z,12.54
2023-04-16T07:27:07.800Z,12.62
2023-04-16T07:29:37.191Z,12.73
2023-04-16T07:32:08.481Z,12.91
2023-04-16T07:34:37.634Z,13.09
2023-04-16T07:37:04.305Z,13.25
2023-04-16T07:39:30.998Z,13.32
2023-04-16T07:41:57.649Z,13.27
2023-04-16T07:44:24.269Z,13.25
2023-04-16T07:46:51.327Z,13.29
2023-04-16T07:49:20.444Z,13.46
2023-04-16T07:51:47.315Z,13.37
2023-04-16T07:54:13.937Z,13.45
2023-04-16T07:56:43.402Z,13.50
2023-04-16T07:59:22.167Z,13.65
2023-04-16T08:01:52.882Z,13.74
2023-04-16T08:04:25.058Z,13.87
2023-04-16T08:06:52.675Z,13.99
2023-04-16T08:09:22.897Z,14.10
2023-04-16T08:11:49.993Z,14.39
2023-04-16T08:14:17.134Z,14.59
2023-04-16T08:16:43.784Z,14.56
2023-04-16T08:19:10.729Z,14.57
2023-04-16T08:21:37.851Z,14.78
2023-04-16T08:24:04.592Z,15.06
2023-04-16T08:26:33.620Z,15.40
2023-04-16T08:29:02.745Z,15.62
2023-04-16T08:31:31.988Z,15.65
2023-04-16T08:33:59.052Z,15.76
2023-04-16T08:36:32.995Z,15.89
2023-04-16T08:39:02.097Z,15.92
2023-04-16T08:41:29.494Z,16.15
2023-04-16T08:44:00.554Z,16.23
2023-04-16T08:46:27.358Z,16.37
2023-04-16T08:48:54.942Z,16.62
2023-04-16T08:51:24.202Z,16.93
2023-04-16T08:53:50.778Z,17.04
2023-04-16T08:56:17.447Z,17.31
2023-04-16T08:58:44.113Z,17.43
2023-04-16T09:01:11.351Z,17.42
2023-04-16T09:03:37.993Z,17.12
2023-04-16T09:06:07.170Z,17.15
2023-04-16T09:08:34.748Z,17.29
2023-04-16T09:11:01.440Z,17.38
2023-04-16T09:13:30.725Z,17.57
2023-04-16T09:15:59.949Z,17.82
2023-04-16T09:18:28.151Z,17.95
2023-04-16T09:20:56.409Z,17.96
2023-04-16T09:23:25.429Z,17.95
2023-04-16T09:25:55.952Z,17.97
2023-04-16T09:28:41.036Z,17.91
2023-04-16T09:31:12.009Z,17.83
2023-04-16T09:33:38.823Z,17.95
2023-04-16T09:36:08.016Z,18.09
2023-04-16T09:38:50.709Z,18.08
2023-04-16T09:41:17.558Z,17.87
2023-04-16T09:44:05.447Z,17.71
2023-04-16T09:46:34.419Z,17.58
2023-04-16T09:49:13.222Z,17.59
2023-04-16T09:51:46.813Z,17.62
2023-04-16T09:54:16.232Z,17.61
2023-04-16T09:56:43.371Z,17.63
2023-04-16T09:59:19.198Z,17.52
2023-04-16T10:01:49.864Z,17.39
2023-04-16T10:04:20.572Z,17.46
2023-04-16T10:07:02.304Z,17.63
2023-04-16T10:09:32.296Z,17.82
2023-04-16T10:11:59.299Z,18.03
2023-04-16T10:14:30.790Z,18.06
2023-04-16T10:16:57.462Z,18.13
2023-04-16T10:19:25.005Z,18.34
2023-04-16T10:21:54.411Z,18.57
2023-04-16T10:24:21.009Z,18.81
2023-04-16T10:26:48.052Z,18.99
2023-04-16T10:29:24.653Z,19.17
2023-04-16T10:31:54.529Z,19.41
2023-04-16T10:34:23.972Z,19.72
2023-04-16T10:36:52.627Z,20.09
2023-04-16T10:39:30.833Z,20.20
2023-04-16T10:42:11.926Z,20.51
2023-04-16T10:44:44.378Z,20.74
2023-04-16T10:47:13.233Z,20.80
2023-04-16T10:49:42.551Z,21.00
2023-04-16T10:52:13.660Z,21.26
2023-04-16T10:54:40.917Z,21.36
2023-04-16T10:57:10.814Z,21.55
2023-04-16T10:59:38.151Z,21.76
2023-04-16T11:02:09.799Z,21.82
2023-04-16T11:04:37.521Z,21.91
2023-04-16T11:07:07.435Z,22.33
2023-04-16T11:09:46.849Z,22.61
2023-04-16T11:12:16.725Z,22.78
2023-04-16T11:14:43.271Z,22.82
2023-04-16T11:17:13.033Z,22.92
2023-04-16T11:19:42.467Z,23.04
2023-04-16T11:22:10.642Z,23.13
2023-04-16T11:24:39.226Z,23.18
2023-04-16T11:27:05.998Z,23.01
2023-04-16T11:29:34.964Z,22.70
2023-04-16T11:32:04.374Z,22.52
2023-04-16T11:34:31.037Z,22.30
2023-04-16T11:37:00.036Z,22.16
2023-04-16T11:39:29.319Z,22.06
2023-04-16T11:41:56.176Z,21.98
2023-04-16T11:44:23.936Z,22.05
2023-04-16T11:46:53.297Z,22.24
2023-04-16T11:49:31.825Z,22.63
2023-04-16T11:51:58.826Z,22.73
2023-04-16T11:54:26.047Z,22.66
2023-04-16T11:56:56.007Z,22.65
2023-04-16T11:59:23.904Z,21.78
2023-04-16T12:01:51.579Z,22.36
2023-04-16T12:04:22.911Z,22.25
2023-04-16T12:07:08.198Z,22.46
2023-04-16T12:09:40.730Z,22.67
2023-04-16T12:12:28.332Z,22.98
2023-04-16T12:14:57.034Z,23.22
2023-04-16T12:17:28.868Z,23.34
2023-04-16T12:19:59.634Z,23.48
2023-04-16T12:22:27.323Z,23.42
2023-04-16T12:25:01.247Z,23.15
2023-04-16T12:27:41.148Z,23.21
2023-04-16T12:30:08.075Z,22.98
2023-04-16T12:32:34.808Z,23.02
2023-04-16T12:35:03.991Z,23.07
2023-04-16T12:37:33.260Z,23.08
2023-04-16T12:40:00.341Z,23.15
2023-04-16T12:42:27.105Z,23.51
2023-04-16T12:44:53.735Z,23.47
2023-04-16T12:47:20.503Z,23.12
2023-04-16T12:49:47.163Z,22.63
2023-04-16T12:52:16.249Z,22.65
2023-04-16T12:54:42.859Z,22.88
2023-04-16T12:57:13.040Z,23.12
2023-04-16T12:59:42.240Z,23.06
2023-04-16T13:02:09.300Z,23.17
2023-04-16T13:04:38.612Z,23.27
2023-04-16T13:07:10.979Z,23.42
2023-04-16T13:09:40.204Z,24.11
2023-04-16T13:12:07.146Z,24.53
2023-04-16T13:14:36.446Z,24.55
2023-04-16T13:17:05.619Z,24.45
2023-04-16T13:19:32.394Z,24.14
2023-04-16T13:21:59.221Z,23.86
2023-04-16T13:24:26.297Z,23.61
2023-04-16T13:26:57.795Z,23.37
2023-04-16T13:29:24.423Z,23.05
2023-04-16T13:31:51.238Z,22.90
2023-04-16T13:34:22.828Z,22.74
2023-04-16T13:36:49.525Z,22.47
2023-04-16T13:39:19.029Z,22.43
2023-04-16T13:41:46.028Z,22.28
2023-04-16T13:44:15.061Z,22.20
2023-04-16T13:46:47.644Z,22.18
2023-04-16T13:49:16.605Z,22.13
2023-04-16T13:51:44.192Z,22.06
2023-04-16T13:54:10.885Z,22.06
2023-04-16T13:56:37.526Z,22.09
2023-04-16T13:59:04.114Z,22.05
2023-04-16T14:01:33.759Z,22.04
2023-04-16T14:04:05.984Z,22.14
2023-04-16T14:06:33.312Z,22.12
2023-04-16T14:08:59.951Z,21.93
2023-04-16T14:11:28.944Z,21.85
2023-04-16T14:13:55.640Z,21.82
2023-04-16T14:16:22.363Z,21.73
2023-04-16T14:18:49.187Z,21.72
2023-04-16T14:21:16.148Z,21.68
2023-04-16T14:23:42.865Z,21.60
2023-04-16T14:26:09.491Z,21.55
2023-04-16T14:28:36.449Z,21.48
2023-04-16T14:31:03.025Z,21.40
2023-04-16T14:33:32.406Z,21.36
2023-04-16T14:36:01.224Z,21.34
2023-04-16T14:38:29.644Z,21.35
2023-04-16T14:41:00.292Z,21.22
2023-04-16T14:43:27.387Z,21.16
2023-04-16T14:45:54.252Z,21.19
2023-04-16T14:48:23.584Z,21.04
2023-04-16T14:50:50.645Z,21.20
2023-04-16T14:53:17.348Z,21.27
2023-04-16T14:55:46.806Z,21.24
2023-04-16T14:58:14.086Z,21.13
2023-04-16T15:00:40.769Z,20.89
2023-04-16T15:03:07.478Z,21.03
2023-04-16T15:05:37.461Z,21.00
2023-04-16T15:08:05.696Z,21.00
2023-04-16T15:10:32.901Z,21.09
2023-04-16T15:12:59.551Z,21.06
2023-04-16T15:15:26.142Z,20.87
2023-04-16T15:17:57.056Z,21.04
2023-04-16T15:20:24.468Z,21.22
2023-04-16T15:22:53.983Z,21.43
2023-04-16T15:25:21.165Z,21.76
2023-04-16T15:27:47.968Z,22.04
2023-04-16T15:30:14.795Z,22.08
2023-04-16T15:32:42.246Z,22.57
2023-04-16T15:35:11.440Z,23.97
2023-04-16T15:37:42.940Z,24.18
2023-04-16T15:40:11.965Z,24.65
2023-04-16T15:42:39.069Z,25.44
2023-04-16T15:45:11.295Z,25.49
2023-04-16T15:47:41.836Z,25.13
2023-04-16T15:50:08.824Z,24.74
2023-04-16T15:52:38.655Z,24.32
2023-04-16T15:55:07.746Z,23.98
2023-04-16T15:57:34.814Z,23.71
2023-04-16T16:02:31.951Z,23.10
2023-04-16T16:05:00.346Z,22.86
2023-04-16T16:07:29.444Z,22.66
2023-04-16T16:09:58.560Z,22.28
2023-04-16T16:12:33.055Z,21.78
2023-04-16T16:15:00.175Z,21.40
2023-04-16T16:17:26.848Z,21.08
2023-04-16T16:19:53.638Z,20.83
2023-04-16T16:22:20.772Z,20.68
2023-04-16T16:24:51.016Z,20.53
2023-04-16T16:27:20.981Z,20.38
2023-04-16T16:29:49.942Z,20.20
2023-04-16T16:32:19.469Z,20.02
2023-04-16T16:34:46.082Z,19.94
2023-04-16T16:37:13.173Z,19.86
2023-04-16T16:39:39.832Z,19.70
2023-04-16T16:42:09.043Z,19.62
2023-04-16T16:44:35.706Z,19.59
2023-04-16T16:47:02.900Z,19.60
2023-04-16T16:49:32.317Z,19.57
2023-04-16T16:52:03.557Z,19.47
2023-04-16T16:54:30.454Z,19.39
2023-04-16T16:56:59.558Z,19.28
2023-04-16T16:59:31.049Z,19.17
2023-04-16T17:01:58.068Z,19.10
2023-04-16T17:04:24.733Z,18.96
2023-04-16T17:06:51.518Z,18.92
2023-04-16T17:09:18.164Z,18.85
2023-04-16T17:11:44.809Z,18.79
2023-04-16T17:14:11.398Z,18.73
2023-04-16T17:16:38.146Z,18.66
2023-04-16T17:19:04.774Z,18.50
2023-04-16T17:21:33.106Z,18.29
2023-04-16T17:24:00.131Z,18.14
2023-04-16T17:26:27.316Z,17.93
2023-04-16T17:28:54.311Z,17.81
2023-04-16T17:31:21.461Z,17.57
2023-04-16T17:33:53.433Z,17.26
2023-04-16T17:36:25.662Z,17.09
2023-04-16T17:38:54.704Z,17.01
2023-04-16T17:41:21.462Z,16.89
2023-04-16T17:43:50.673Z,16.81
2023-04-16T17:46:22.671Z,16.64
2023-04-16T17:48:51.905Z,16.55
2023-04-16T17:51:18.706Z,16.59
2023-04-16T17:53:45.418Z,16.62
2023-04-16T17:56:14.749Z,16.54
2023-04-16T17:58:43.979Z,16.46
2023-04-16T18:01:15.684Z,16.21
2023-04-16T18:03:44.363Z,16.10
2023-04-16T18:06:13.672Z,16.12
2023-04-16T18:08:40.855Z,16.14
2023-04-16T18:11:10.782Z,16.11
2023-04-16T18:13:37.732Z,16.13
2023-04-16T18:16:04.497Z,16.07
2023-04-16T18:18:31.304Z,16.05
2023-04-16T18:20:58.153Z,16.12
2023-04-16T18:23:25.492Z,16.16
2023-04-16T18:25:54.619Z,16.13
2023-04-16T18:28:21.596Z,16.13
2023-04-16T18:35:47.926Z,16.14
2023-04-16T18:38:14.666Z,16.20
2023-04-16T18:40:42.203Z,16.06
2023-04-16T18:43:11.361Z,15.97
2023-04-16T18:45:38.005Z,15.88
2023-04-16T18:48:04.803Z,15.84
2023-04-16T18:50:32.134Z,15.86
2023-04-16T18:53:01.129Z,15.75
2023-04-16T18:55:27.752Z,15.75
2023-04-16T18:57:57.076Z,15.82
2023-04-16T19:00:26.111Z,15.72
2023-04-16T19:02:53.077Z,15.69
2023-04-16T19:05:23.445Z,15.65
2023-04-16T19:07:52.930Z,15.70
2023-04-16T19:10:22.086Z,15.76
2023-04-16T19:12:51.151Z,15.73
2023-04-16T19:15:17.789Z,15.69
2023-04-16T19:17:46.924Z,15.61
2023-04-16T19:20:13.905Z,15.54
2023-04-16T19:22:40.870Z,15.56
2023-04-16T19:25:08.212Z,15.61
2023-04-16T19:27:35.017Z,15.62
2023-04-16T19:30:02.874Z,15.59
2023-04-16T19:32:29.653Z,15.48
2023-04-16T19:34:56.893Z,15.48
2023-04-16T19:37:23.646Z,15.40
2023-04-16T19:39:52.686Z,15.41
2023-04-16T19:42:19.350Z,15.38
2023-04-16T19:44:46.170Z,15.36
2023-04-16T19:47:12.836Z,15.34
2023-04-16T19:49:39.631Z,15.35
2023-04-16T19:52:06.735Z,15.36
2023-04-16T19:54:37.385Z,15.35
2023-04-16T19:57:04.681Z,15.30
2023-04-16T19:59:32.352Z,15.33
2023-04-16T20:01:59.171Z,15.30
2023-04-16T20:04:25.996Z,15.25
2023-04-16T20:06:52.955Z,15.17
2023-04-16T20:09:20.270Z,15.19
2023-04-16T20:11:47.136Z,15.18
2023-04-16T20:14:13.798Z,15.19
2023-04-16T20:16:40.976Z,15.16
2023-04-16T20:19:08.881Z,15.19
2023-04-16T20:21:38.210Z,15.18
2023-04-16T20:24:05.152Z,15.26
2023-04-16T20:26:37.729Z,15.25
2023-04-16T20:29:04.493Z,15.29
2023-04-16T20:31:40.210Z,15.33
2023-04-16T20:34:07.905Z,15.34
2023-04-16T20:36:34.861Z,15.33
2023-04-16T20:39:07.225Z,15.30
2023-04-16T20:41:34.071Z,15.26
2023-04-16T20:44:05.565Z,15.26
2023-04-16T20:46:34.458Z,15.21
2023-04-16T20:49:04.068Z,15.23
2023-04-16T20:51:31.692Z,15.17
2023-04-16T20:54:10.523Z,15.13
2023-04-16T20:56:39.372Z,15.11
2023-04-16T20:59:08.089Z,15.16
2023-04-16T21:01:37.274Z,15.19
2023-04-16T21:04:06.831Z,15.08
2023-04-16T21:06:38.593Z,15.11
2023-04-16T21:09:06.091Z,15.09
2023-04-16T21:11:35.070Z,15.12
2023-04-16T21:14:02.159Z,15.15
2023-04-16T21:16:29.626Z,15.11
2023-04-16T21:18:56.862Z,15.00
2023-04-16T21:21:23.846Z,14.82
2023-04-16T21:23:52.788Z,14.73
2023-04-16T21:26:19.519Z,14.70
2023-04-16T21:28:46.109Z,14.68
2023-04-16T21:31:12.744Z,14.71
2023-04-16T21:33:42.661Z,14.69
2023-04-16T21:36:10.197Z,14.72
2023-04-16T21:38:39.247Z,14.80
2023-04-16T21:41:07.986Z,14.86
2023-04-16T21:43:38.338Z,14.71
2023-04-16T21:46:07.922Z,14.62
2023-04-16T21:48:37.310Z,14.52
2023-04-16T21:51:08.179Z,14.49
2023-04-16T21:53:38.691Z,14.56
2023-04-16T21:56:06.151Z,14.53
2023-04-16T21:58:34.961Z,14.46
2023-04-16T22:01:01.778Z,14.39
2023-04-16T22:03:31.253Z,14.34
2023-04-16T22:06:01.277Z,14.30
2023-04-16T22:08:31.071Z,14.32
2023-04-16T22:10:59.571Z,14.34
2023-04-16T22:13:30.014Z,14.29
2023-04-16T22:15:57.850Z,14.25
2023-04-16T22:18:25.726Z,14.31
2023-04-16T22:20:55.907Z,14.31
2023-04-16T22:23:23.136Z,14.34
2023-04-16T22:25:49.856Z,14.42
2023-04-16T22:28:16.689Z,14.40
2023-04-16T22:30:45.711Z,14.40
2023-04-16T22:33:12.464Z,14.39
2023-04-16T22:35:39.126Z,14.34
2023-04-16T22:38:08.310Z,14.34
2023-04-16T22:40:34.893Z,14.29
2023-04-16T22:43:01.646Z,14.25
2023-04-16T22:45:28.585Z,14.27
2023-04-16T22:47:57.608Z,14.33
2023-04-16T22:50:27.283Z,14.35
2023-04-16T22:52:54.283Z,14.36
2023-04-16T22:55:23.558Z,14.45
2023-04-16T22:57:50.339Z,14.42
2023-04-16T23:00:17.961Z,14.36
2023-04-16T23:02:45.196Z,14.34
2023-04-16T23:05:14.850Z,14.35
2023-04-16T23:07:41.587Z,14.31
2023-04-16T23:10:09.000Z,14.31
2023-04-16T23:12:38.074Z,14.21
2023-04-16T23:15:06.607Z,14.13
2023-04-16T23:17:38.313Z,14.15
2023-04-16T23:20:08.067Z,14.21
2023-04-16T23:22:34.666Z,14.17
2023-04-16T23:25:03.944Z,14.15
2023-04-16T23:27:32.596Z,14.14
2023-04-16T23:30:01.897Z,14.11
2023-04-16T23:32:28.665Z,14.11
2023-04-16T23:34:57.746Z,14.12
2023-04-16T23:37:28.507Z,14.16
2023-04-16T23:39:55.168Z,14.18
2023-04-16T23:42:21.975Z,14.18
2023-04-16T23:44:53.329Z,14.21
2023-04-16T23:47:25.222Z,14.17
2023-04-16T23:49:51.778Z,14.20
2023-04-16T23:52:18.722Z,14.13
2023-04-16T23:54:47.682Z,14.09
2023-04-16T23:57:16.585Z,14.02
2023-04-16T23:59:43.229Z,13.89
